sensor_id;sensor_type;location;lat;lon;timestamp;P1;durP1;ratioP1;P2;durP2;ratioP2
7057;SDS011;3570;43.080;25.628;2022-10-30T00:01:31;8.23;;;5.33;;
7057;SDS011;3570;43.080;25.628;2022-10-30T00:04:15;11.47;;;5.27;;
7057;SDS011;3570;43.080;25.628;2022-10-30T00:06:59;10.00;;;5.47;;
7057;SDS011;3570;43.080;25.628;2022-10-30T00:09:44;8.50;;;5.57;;
7057;SDS011;3570;43.080;25.628;2022-10-30T00:12:27;9.80;;;5.73;;
7057;SDS011;3570;43.080;25.628;2022-10-30T00:15:12;7.27;;;5.27;;
7057;SDS011;3570;43.080;25.628;2022-10-30T00:17:57;10.17;;;5.43;;
7057;SDS011;3570;43.080;25.628;2022-10-30T00:20:40;9.27;;;5.73;;
7057;SDS011;3570;43.080;25.628;2022-10-30T00:23:24;8.70;;;4.90;;
7057;SDS011;3570;43.080;25.628;2022-10-30T00:26:08;11.43;;;5.43;;
7057;SDS011;3570;43.080;25.628;2022-10-30T00:28:53;9.13;;;5.03;;
7057;SDS011;3570;43.080;25.628;2022-10-30T00:31:38;10.07;;;5.70;;
7057;SDS011;3570;43.080;25.628;2022-10-30T00:34:22;11.97;;;5.60;;
7057;SDS011;3570;43.080;25.628;2022-10-30T00:37:06;6.43;;;5.30;;
7057;SDS011;3570;43.080;25.628;2022-10-30T00:39:50;8.73;;;5.43;;
7057;SDS011;3570;43.080;25.628;2022-10-30T00:42:34;7.83;;;5.40;;
7057;SDS011;3570;43.080;25.628;2022-10-30T00:45:18;7.10;;;4.83;;
7057;SDS011;3570;43.080;25.628;2022-10-30T00:48:02;8.23;;;4.97;;
7057;SDS011;3570;43.080;25.628;2022-10-30T00:50:47;8.03;;;5.63;;
7057;SDS011;3570;43.080;25.628;2022-10-30T00:53:31;8.30;;;5.70;;
7057;SDS011;3570;43.080;25.628;2022-10-30T00:56:17;7.20;;;5.23;;
7057;SDS011;3570;43.080;25.628;2022-10-30T00:59:05;9.00;;;5.53;;
7057;SDS011;3570;43.080;25.628;2022-10-30T01:01:52;8.07;;;5.73;;
7057;SDS011;3570;43.080;25.628;2022-10-30T01:04:36;10.13;;;5.23;;
7057;SDS011;3570;43.080;25.628;2022-10-30T01:07:22;9.60;;;5.50;;
7057;SDS011;3570;43.080;25.628;2022-10-30T01:10:07;13.03;;;6.50;;
7057;SDS011;3570;43.080;25.628;2022-10-30T01:12:52;9.07;;;5.70;;
7057;SDS011;3570;43.080;25.628;2022-10-30T01:15:47;10.47;;;5.73;;
7057;SDS011;3570;43.080;25.628;2022-10-30T01:18:51;9.17;;;5.87;;
7057;SDS011;3570;43.080;25.628;2022-10-30T01:30:50;10.43;;;5.40;;
7057;SDS011;3570;43.080;25.628;2022-10-30T01:39:45;8.30;;;5.13;;
7057;SDS011;3570;43.080;25.628;2022-10-30T01:45:53;9.23;;;6.70;;
7057;SDS011;3570;43.080;25.628;2022-10-30T01:48:56;9.83;;;6.80;;
7057;SDS011;3570;43.080;25.628;2022-10-30T01:54:48;9.53;;;5.73;;
7057;SDS011;3570;43.080;25.628;2022-10-30T01:57:41;8.97;;;5.70;;
7057;SDS011;3570;43.080;25.628;2022-10-30T02:00:42;6.83;;;4.60;;
7057;SDS011;3570;43.080;25.628;2022-10-30T02:03:30;9.90;;;5.50;;
7057;SDS011;3570;43.080;25.628;2022-10-30T02:06:14;7.17;;;5.13;;
7057;SDS011;3570;43.080;25.628;2022-10-30T02:08:58;7.33;;;5.03;;
7057;SDS011;3570;43.080;25.628;2022-10-30T02:11:42;7.47;;;5.27;;
7057;SDS011;3570;43.080;25.628;2022-10-30T02:14:39;7.60;;;5.00;;
7057;SDS011;3570;43.080;25.628;2022-10-30T02:17:27;12.00;;;6.03;;
7057;SDS011;3570;43.080;25.628;2022-10-30T02:20:18;7.43;;;4.83;;
7057;SDS011;3570;43.080;25.628;2022-10-30T02:23:03;6.83;;;4.90;;
7057;SDS011;3570;43.080;25.628;2022-10-30T02:25:48;8.60;;;5.17;;
7057;SDS011;3570;43.080;25.628;2022-10-30T02:28:32;11.30;;;6.07;;
7057;SDS011;3570;43.080;25.628;2022-10-30T02:31:16;9.83;;;6.20;;
7057;SDS011;3570;43.080;25.628;2022-10-30T02:34:02;12.43;;;6.33;;
7057;SDS011;3570;43.080;25.628;2022-10-30T02:36:46;9.20;;;5.07;;
7057;SDS011;3570;43.080;25.628;2022-10-30T02:39:30;10.97;;;5.20;;
7057;SDS011;3570;43.080;25.628;2022-10-30T02:42:14;8.37;;;5.80;;
7057;SDS011;3570;43.080;25.628;2022-10-30T02:44:58;7.33;;;4.90;;
7057;SDS011;3570;43.080;25.628;2022-10-30T02:47:42;8.13;;;5.40;;
7057;SDS011;3570;43.080;25.628;2022-10-30T02:50:26;10.47;;;5.30;;
7057;SDS011;3570;43.080;25.628;2022-10-30T02:53:10;8.77;;;5.57;;
7057;SDS011;3570;43.080;25.628;2022-10-30T02:55:54;9.53;;;5.23;;
7057;SDS011;3570;43.080;25.628;2022-10-30T02:58:38;10.87;;;6.43;;
7057;SDS011;3570;43.080;25.628;2022-10-30T03:01:23;8.60;;;6.47;;
7057;SDS011;3570;43.080;25.628;2022-10-30T03:04:07;9.73;;;5.83;;
7057;SDS011;3570;43.080;25.628;2022-10-30T03:06:51;9.07;;;5.33;;
7057;SDS011;3570;43.080;25.628;2022-10-30T03:09:35;13.67;;;6.50;;
7057;SDS011;3570;43.080;25.628;2022-10-30T03:12:19;9.50;;;5.97;;
7057;SDS011;3570;43.080;25.628;2022-10-30T03:15:04;9.07;;;6.10;;
7057;SDS011;3570;43.080;25.628;2022-10-30T03:17:49;9.20;;;5.80;;
7057;SDS011;3570;43.080;25.628;2022-10-30T03:20:35;8.50;;;5.47;;
7057;SDS011;3570;43.080;25.628;2022-10-30T03:23:19;6.90;;;5.07;;
7057;SDS011;3570;43.080;25.628;2022-10-30T03:26:03;8.67;;;5.60;;
7057;SDS011;3570;43.080;25.628;2022-10-30T03:28:48;18.63;;;6.47;;
7057;SDS011;3570;43.080;25.628;2022-10-30T03:31:32;11.90;;;6.10;;
7057;SDS011;3570;43.080;25.628;2022-10-30T03:34:16;12.83;;;6.53;;
7057;SDS011;3570;43.080;25.628;2022-10-30T03:37:00;10.33;;;6.07;;
7057;SDS011;3570;43.080;25.628;2022-10-30T03:39:44;13.50;;;6.00;;
7057;SDS011;3570;43.080;25.628;2022-10-30T03:42:27;13.37;;;6.00;;
7057;SDS011;3570;43.080;25.628;2022-10-30T03:45:11;8.57;;;6.00;;
7057;SDS011;3570;43.080;25.628;2022-10-30T03:47:55;10.40;;;6.27;;
7057;SDS011;3570;43.080;25.628;2022-10-30T03:50:39;10.07;;;5.87;;
7057;SDS011;3570;43.080;25.628;2022-10-30T03:53:24;13.13;;;6.37;;
7057;SDS011;3570;43.080;25.628;2022-10-30T03:56:09;8.73;;;6.23;;
7057;SDS011;3570;43.080;25.628;2022-10-30T03:58:53;12.57;;;6.33;;
7057;SDS011;3570;43.080;25.628;2022-10-30T04:01:37;8.73;;;5.20;;
7057;SDS011;3570;43.080;25.628;2022-10-30T04:04:21;7.93;;;5.27;;
7057;SDS011;3570;43.080;25.628;2022-10-30T04:07:05;10.17;;;5.87;;
7057;SDS011;3570;43.080;25.628;2022-10-30T04:09:49;9.43;;;5.57;;
7057;SDS011;3570;43.080;25.628;2022-10-30T04:12:33;11.03;;;5.87;;
7057;SDS011;3570;43.080;25.628;2022-10-30T04:15:17;13.17;;;6.63;;
7057;SDS011;3570;43.080;25.628;2022-10-30T04:18:01;10.43;;;6.90;;
7057;SDS011;3570;43.080;25.628;2022-10-30T04:20:45;15.17;;;6.10;;
7057;SDS011;3570;43.080;25.628;2022-10-30T04:23:29;14.10;;;6.70;;
7057;SDS011;3570;43.080;25.628;2022-10-30T04:26:13;10.47;;;6.33;;
7057;SDS011;3570;43.080;25.628;2022-10-30T04:28:57;11.27;;;6.30;;
7057;SDS011;3570;43.080;25.628;2022-10-30T04:31:41;11.77;;;6.83;;
7057;SDS011;3570;43.080;25.628;2022-10-30T04:34:25;8.67;;;5.90;;
7057;SDS011;3570;43.080;25.628;2022-10-30T04:37:09;8.87;;;6.00;;
7057;SDS011;3570;43.080;25.628;2022-10-30T04:39:53;11.60;;;6.40;;
7057;SDS011;3570;43.080;25.628;2022-10-30T04:42:37;13.37;;;6.97;;
7057;SDS011;3570;43.080;25.628;2022-10-30T04:45:21;10.13;;;7.23;;
7057;SDS011;3570;43.080;25.628;2022-10-30T04:50:50;12.53;;;6.13;;
7057;SDS011;3570;43.080;25.628;2022-10-30T04:53:35;14.50;;;6.47;;
7057;SDS011;3570;43.080;25.628;2022-10-30T04:56:18;11.70;;;5.93;;
7057;SDS011;3570;43.080;25.628;2022-10-30T04:59:02;10.23;;;6.40;;
7057;SDS011;3570;43.080;25.628;2022-10-30T05:01:47;9.63;;;6.03;;
7057;SDS011;3570;43.080;25.628;2022-10-30T05:04:31;8.23;;;5.67;;
7057;SDS011;3570;43.080;25.628;2022-10-30T05:07:14;10.00;;;5.90;;
7057;SDS011;3570;43.080;25.628;2022-10-30T05:10:00;10.60;;;6.77;;
7057;SDS011;3570;43.080;25.628;2022-10-30T05:12:44;12.73;;;6.10;;
7057;SDS011;3570;43.080;25.628;2022-10-30T05:15:28;9.13;;;5.77;;
7057;SDS011;3570;43.080;25.628;2022-10-30T05:18:12;9.30;;;6.03;;
7057;SDS011;3570;43.080;25.628;2022-10-30T05:20:56;14.03;;;6.10;;
7057;SDS011;3570;43.080;25.628;2022-10-30T05:23:40;7.77;;;5.73;;
7057;SDS011;3570;43.080;25.628;2022-10-30T05:26:24;11.07;;;6.03;;
7057;SDS011;3570;43.080;25.628;2022-10-30T05:29:09;7.47;;;5.60;;
7057;SDS011;3570;43.080;25.628;2022-10-30T05:31:53;9.37;;;5.20;;
7057;SDS011;3570;43.080;25.628;2022-10-30T05:34:37;9.43;;;5.27;;
7057;SDS011;3570;43.080;25.628;2022-10-30T05:37:21;10.23;;;5.67;;
7057;SDS011;3570;43.080;25.628;2022-10-30T05:40:05;10.93;;;4.97;;
7057;SDS011;3570;43.080;25.628;2022-10-30T05:42:49;9.47;;;5.50;;
7057;SDS011;3570;43.080;25.628;2022-10-30T05:45:34;10.20;;;5.77;;
7057;SDS011;3570;43.080;25.628;2022-10-30T05:48:18;12.87;;;5.47;;
7057;SDS011;3570;43.080;25.628;2022-10-30T05:51:02;7.67;;;5.23;;
7057;SDS011;3570;43.080;25.628;2022-10-30T05:53:47;6.20;;;5.03;;
7057;SDS011;3570;43.080;25.628;2022-10-30T05:56:32;6.97;;;5.10;;
7057;SDS011;3570;43.080;25.628;2022-10-30T05:59:16;8.70;;;5.47;;
7057;SDS011;3570;43.080;25.628;2022-10-30T06:02:00;7.70;;;4.10;;
7057;SDS011;3570;43.080;25.628;2022-10-30T06:04:44;11.43;;;4.37;;
7057;SDS011;3570;43.080;25.628;2022-10-30T06:07:28;6.83;;;3.97;;
7057;SDS011;3570;43.080;25.628;2022-10-30T06:10:12;6.70;;;4.30;;
7057;SDS011;3570;43.080;25.628;2022-10-30T06:12:56;7.97;;;4.07;;
7057;SDS011;3570;43.080;25.628;2022-10-30T06:15:45;6.77;;;4.00;;
7057;SDS011;3570;43.080;25.628;2022-10-30T06:18:28;6.37;;;4.83;;
7057;SDS011;3570;43.080;25.628;2022-10-30T06:21:12;5.53;;;4.17;;
7057;SDS011;3570;43.080;25.628;2022-10-30T06:23:56;7.57;;;4.60;;
7057;SDS011;3570;43.080;25.628;2022-10-30T06:26:41;7.27;;;4.67;;
7057;SDS011;3570;43.080;25.628;2022-10-30T06:29:25;8.60;;;4.33;;
7057;SDS011;3570;43.080;25.628;2022-10-30T06:32:09;8.27;;;4.80;;
7057;SDS011;3570;43.080;25.628;2022-10-30T06:34:53;9.20;;;4.50;;
7057;SDS011;3570;43.080;25.628;2022-10-30T06:37:37;8.87;;;3.97;;
7057;SDS011;3570;43.080;25.628;2022-10-30T06:40:27;8.50;;;4.73;;
7057;SDS011;3570;43.080;25.628;2022-10-30T06:43:15;8.47;;;4.07;;
7057;SDS011;3570;43.080;25.628;2022-10-30T06:45:59;6.20;;;4.30;;
7057;SDS011;3570;43.080;25.628;2022-10-30T06:48:43;9.27;;;4.77;;
7057;SDS011;3570;43.080;25.628;2022-10-30T06:51:27;6.90;;;4.80;;
7057;SDS011;3570;43.080;25.628;2022-10-30T06:54:11;8.90;;;5.20;;
7057;SDS011;3570;43.080;25.628;2022-10-30T06:56:55;10.13;;;6.10;;
7057;SDS011;3570;43.080;25.628;2022-10-30T06:59:39;9.30;;;5.50;;
7057;SDS011;3570;43.080;25.628;2022-10-30T07:02:23;7.73;;;5.20;;
7057;SDS011;3570;43.080;25.628;2022-10-30T07:05:07;10.77;;;5.57;;
7057;SDS011;3570;43.080;25.628;2022-10-30T07:07:52;9.23;;;5.67;;
7057;SDS011;3570;43.080;25.628;2022-10-30T07:10:38;9.17;;;5.20;;
7057;SDS011;3570;43.080;25.628;2022-10-30T07:13:22;8.60;;;4.87;;
7057;SDS011;3570;43.080;25.628;2022-10-30T07:16:06;11.87;;;5.50;;
7057;SDS011;3570;43.080;25.628;2022-10-30T07:18:51;8.10;;;5.03;;
7057;SDS011;3570;43.080;25.628;2022-10-30T07:21:35;8.87;;;4.90;;
7057;SDS011;3570;43.080;25.628;2022-10-30T07:24:19;7.43;;;5.30;;
7057;SDS011;3570;43.080;25.628;2022-10-30T07:27:03;7.10;;;5.07;;
7057;SDS011;3570;43.080;25.628;2022-10-30T07:29:47;14.00;;;4.80;;
7057;SDS011;3570;43.080;25.628;2022-10-30T07:32:31;8.63;;;4.87;;
7057;SDS011;3570;43.080;25.628;2022-10-30T07:35:15;6.83;;;4.20;;
7057;SDS011;3570;43.080;25.628;2022-10-30T07:38:03;8.27;;;4.50;;
7057;SDS011;3570;43.080;25.628;2022-10-30T07:40:51;8.37;;;4.10;;
7057;SDS011;3570;43.080;25.628;2022-10-30T07:43:36;7.80;;;4.57;;
7057;SDS011;3570;43.080;25.628;2022-10-30T07:46:20;6.37;;;5.00;;
7057;SDS011;3570;43.080;25.628;2022-10-30T07:49:04;8.10;;;4.67;;
7057;SDS011;3570;43.080;25.628;2022-10-30T07:51:48;9.63;;;4.87;;
7057;SDS011;3570;43.080;25.628;2022-10-30T07:54:32;8.40;;;6.33;;
7057;SDS011;3570;43.080;25.628;2022-10-30T07:57:16;11.27;;;6.30;;
7057;SDS011;3570;43.080;25.628;2022-10-30T08:00:01;9.30;;;5.80;;
7057;SDS011;3570;43.080;25.628;2022-10-30T08:02:49;9.57;;;5.47;;
7057;SDS011;3570;43.080;25.628;2022-10-30T08:05:33;10.63;;;5.87;;
7057;SDS011;3570;43.080;25.628;2022-10-30T08:08:18;10.87;;;5.97;;
7057;SDS011;3570;43.080;25.628;2022-10-30T08:11:02;10.17;;;5.43;;
7057;SDS011;3570;43.080;25.628;2022-10-30T08:13:46;6.87;;;4.50;;
7057;SDS011;3570;43.080;25.628;2022-10-30T08:16:30;15.73;;;6.30;;
7057;SDS011;3570;43.080;25.628;2022-10-30T08:19:14;8.27;;;5.10;;
7057;SDS011;3570;43.080;25.628;2022-10-30T08:21:58;11.23;;;5.50;;
7057;SDS011;3570;43.080;25.628;2022-10-30T08:24:42;8.73;;;5.40;;
7057;SDS011;3570;43.080;25.628;2022-10-30T08:27:27;9.57;;;5.60;;
7057;SDS011;3570;43.080;25.628;2022-10-30T08:30:11;8.70;;;5.00;;
7057;SDS011;3570;43.080;25.628;2022-10-30T08:32:59;7.93;;;5.00;;
7057;SDS011;3570;43.080;25.628;2022-10-30T08:35:46;7.77;;;5.00;;
7057;SDS011;3570;43.080;25.628;2022-10-30T08:38:31;7.37;;;4.50;;
7057;SDS011;3570;43.080;25.628;2022-10-30T08:41:15;6.67;;;4.50;;
7057;SDS011;3570;43.080;25.628;2022-10-30T08:43:59;6.77;;;4.20;;
7057;SDS011;3570;43.080;25.628;2022-10-30T08:46:43;6.43;;;4.90;;
7057;SDS011;3570;43.080;25.628;2022-10-30T08:49:27;9.60;;;5.63;;
7057;SDS011;3570;43.080;25.628;2022-10-30T08:52:11;7.37;;;5.50;;
7057;SDS011;3570;43.080;25.628;2022-10-30T08:54:55;7.50;;;5.63;;
7057;SDS011;3570;43.080;25.628;2022-10-30T08:57:39;5.40;;;4.27;;
7057;SDS011;3570;43.080;25.628;2022-10-30T09:00:23;5.40;;;4.23;;
7057;SDS011;3570;43.080;25.628;2022-10-30T09:03:07;6.93;;;3.70;;
7057;SDS011;3570;43.080;25.628;2022-10-30T09:05:51;11.43;;;4.23;;
7057;SDS011;3570;43.080;25.628;2022-10-30T09:08:35;6.47;;;3.87;;
7057;SDS011;3570;43.080;25.628;2022-10-30T09:11:19;7.80;;;4.10;;
7057;SDS011;3570;43.080;25.628;2022-10-30T09:14:04;5.07;;;3.37;;
7057;SDS011;3570;43.080;25.628;2022-10-30T09:16:48;5.60;;;3.70;;
7057;SDS011;3570;43.080;25.628;2022-10-30T09:19:31;6.20;;;3.83;;
7057;SDS011;3570;43.080;25.628;2022-10-30T09:22:15;5.63;;;3.70;;
7057;SDS011;3570;43.080;25.628;2022-10-30T09:24:59;6.45;;;3.17;;
7057;SDS011;3570;43.080;25.628;2022-10-30T09:27:43;4.53;;;3.22;;
7057;SDS011;3570;43.080;25.628;2022-10-30T09:30:28;3.95;;;3.33;;
7057;SDS011;3570;43.080;25.628;2022-10-30T09:33:13;7.05;;;3.53;;
7057;SDS011;3570;43.080;25.628;2022-10-30T09:35:58;7.88;;;3.60;;
7057;SDS011;3570;43.080;25.628;2022-10-30T09:38:45;8.48;;;3.30;;
7057;SDS011;3570;43.080;25.628;2022-10-30T09:57:28;3.80;;;2.78;;
7057;SDS011;3570;43.080;25.628;2022-10-30T10:00:21;3.65;;;2.80;;
7057;SDS011;3570;43.080;25.628;2022-10-30T10:06:05;3.15;;;2.85;;
7057;SDS011;3570;43.080;25.628;2022-10-30T10:09:03;2.95;;;2.22;;
7057;SDS011;3570;43.080;25.628;2022-10-30T10:11:53;4.13;;;2.55;;
7057;SDS011;3570;43.080;25.628;2022-10-30T10:14:44;3.78;;;2.22;;
7057;SDS011;3570;43.080;25.628;2022-10-30T10:17:32;5.05;;;2.58;;
7057;SDS011;3570;43.080;25.628;2022-10-30T10:20:31;8.10;;;3.25;;
7057;SDS011;3570;43.080;25.628;2022-10-30T10:23:25;6.10;;;2.42;;
7057;SDS011;3570;43.080;25.628;2022-10-30T10:32:51;3.63;;;2.10;;
7057;SDS011;3570;43.080;25.628;2022-10-30T10:36:04;6.03;;;2.30;;
7057;SDS011;3570;43.080;25.628;2022-10-30T10:45:24;4.22;;;2.40;;
7057;SDS011;3570;43.080;25.628;2022-10-30T10:51:32;2.90;;;2.25;;
7057;SDS011;3570;43.080;25.628;2022-10-30T10:54:23;3.90;;;2.58;;
7057;SDS011;3570;43.080;25.628;2022-10-30T10:57:11;3.72;;;2.45;;
7057;SDS011;3570;43.080;25.628;2022-10-30T11:00:09;6.05;;;2.60;;
7057;SDS011;3570;43.080;25.628;2022-10-30T11:03:02;3.28;;;2.33;;
7057;SDS011;3570;43.080;25.628;2022-10-30T11:12:03;4.22;;;2.70;;
7057;SDS011;3570;43.080;25.628;2022-10-30T11:14:48;6.28;;;2.20;;
7057;SDS011;3570;43.080;25.628;2022-10-30T11:17:39;3.17;;;2.25;;
7057;SDS011;3570;43.080;25.628;2022-10-30T11:20:30;2.63;;;2.20;;
7057;SDS011;3570;43.080;25.628;2022-10-30T11:23:30;1.27;;;1.17;;
7057;SDS011;3570;43.080;25.628;2022-10-30T11:26:26;2.08;;;1.40;;
7057;SDS011;3570;43.080;25.628;2022-10-30T11:29:13;1.52;;;1.40;;
7057;SDS011;3570;43.080;25.628;2022-10-30T11:32:04;1.77;;;1.30;;
7057;SDS011;3570;43.080;25.628;2022-10-30T11:38:15;3.95;;;1.80;;
7057;SDS011;3570;43.080;25.628;2022-10-30T11:41:02;2.13;;;1.63;;
7057;SDS011;3570;43.080;25.628;2022-10-30T11:43:46;1.42;;;1.33;;
7057;SDS011;3570;43.080;25.628;2022-10-30T11:46:32;1.40;;;1.30;;
7057;SDS011;3570;43.080;25.628;2022-10-30T11:49:23;3.97;;;1.70;;
7057;SDS011;3570;43.080;25.628;2022-10-30T11:52:11;3.80;;;1.80;;
7057;SDS011;3570;43.080;25.628;2022-10-30T11:55:02;3.45;;;2.10;;
7057;SDS011;3570;43.080;25.628;2022-10-30T11:57:57;3.17;;;1.60;;
7057;SDS011;3570;43.080;25.628;2022-10-30T12:00:41;1.95;;;1.50;;
7057;SDS011;3570;43.080;25.628;2022-10-30T12:03:37;3.30;;;3.10;;
7057;SDS011;3570;43.080;25.628;2022-10-30T12:09:21;4.88;;;3.78;;
7057;SDS011;3570;43.080;25.628;2022-10-30T12:12:49;3.40;;;3.20;;
7057;SDS011;3570;43.080;25.628;2022-10-30T12:15:24;3.78;;;3.40;;
7057;SDS011;3570;43.080;25.628;2022-10-30T12:18:18;3.25;;;2.95;;
7057;SDS011;3570;43.080;25.628;2022-10-30T12:21:05;7.22;;;3.80;;
7057;SDS011;3570;43.080;25.628;2022-10-30T12:23:54;3.40;;;3.10;;
7057;SDS011;3570;43.080;25.628;2022-10-30T12:26:46;3.50;;;3.28;;
7057;SDS011;3570;43.080;25.628;2022-10-30T12:29:54;3.63;;;3.33;;
7057;SDS011;3570;43.080;25.628;2022-10-30T12:32:51;3.30;;;3.10;;
7057;SDS011;3570;43.080;25.628;2022-10-30T12:36:03;3.17;;;2.88;;
7057;SDS011;3570;43.080;25.628;2022-10-30T12:39:10;2.85;;;2.65;;
7057;SDS011;3570;43.080;25.628;2022-10-30T12:42:01;3.58;;;3.25;;
7057;SDS011;3570;43.080;25.628;2022-10-30T12:50:44;4.38;;;4.03;;
7057;SDS011;3570;43.080;25.628;2022-10-30T12:56:46;4.15;;;3.85;;
7057;SDS011;3570;43.080;25.628;2022-10-30T13:08:38;4.38;;;3.70;;
7057;SDS011;3570;43.080;25.628;2022-10-30T13:17:24;4.10;;;3.80;;
7057;SDS011;3570;43.080;25.628;2022-10-30T13:20:11;8.18;;;4.05;;
7057;SDS011;3570;43.080;25.628;2022-10-30T13:23:17;4.25;;;3.60;;
7057;SDS011;3570;43.080;25.628;2022-10-30T13:26:29;4.80;;;4.40;;
7057;SDS011;3570;43.080;25.628;2022-10-30T13:50:39;3.53;;;3.33;;
7057;SDS011;3570;43.080;25.628;2022-10-30T13:53:25;3.90;;;3.50;;
7057;SDS011;3570;43.080;25.628;2022-10-30T13:56:14;3.50;;;3.30;;
7057;SDS011;3570;43.080;25.628;2022-10-30T13:59:09;3.80;;;3.50;;
7057;SDS011;3570;43.080;25.628;2022-10-30T14:02:17;4.22;;;3.90;;
7057;SDS011;3570;43.080;25.628;2022-10-30T14:11:27;4.10;;;3.70;;
7057;SDS011;3570;43.080;25.628;2022-10-30T14:17:15;4.15;;;3.67;;
7057;SDS011;3570;43.080;25.628;2022-10-30T14:23:04;4.97;;;3.78;;
7057;SDS011;3570;43.080;25.628;2022-10-30T14:28:49;5.07;;;2.40;;
7057;SDS011;3570;43.080;25.628;2022-10-30T14:31:35;5.60;;;1.70;;
7057;SDS011;3570;43.080;25.628;2022-10-30T14:43:33;4.28;;;1.77;;
7057;SDS011;3570;43.080;25.628;2022-10-30T14:52:39;5.13;;;4.68;;
7057;SDS011;3570;43.080;25.628;2022-10-30T14:58:38;4.60;;;3.45;;
7057;SDS011;3570;43.080;25.628;2022-10-30T15:04:43;4.17;;;3.50;;
7057;SDS011;3570;43.080;25.628;2022-10-30T15:07:36;3.90;;;2.30;;
7057;SDS011;3570;43.080;25.628;2022-10-30T15:10:30;3.47;;;2.23;;
7057;SDS011;3570;43.080;25.628;2022-10-30T15:13:19;2.67;;;2.03;;
7057;SDS011;3570;43.080;25.628;2022-10-30T15:16:06;3.97;;;2.67;;
7057;SDS011;3570;43.080;25.628;2022-10-30T15:18:56;3.40;;;2.67;;
7057;SDS011;3570;43.080;25.628;2022-10-30T15:21:45;4.80;;;2.50;;
7057;SDS011;3570;43.080;25.628;2022-10-30T15:24:34;5.93;;;2.90;;
7057;SDS011;3570;43.080;25.628;2022-10-30T15:27:18;8.73;;;3.10;;
7057;SDS011;3570;43.080;25.628;2022-10-30T15:30:05;6.47;;;3.00;;
7057;SDS011;3570;43.080;25.628;2022-10-30T15:32:57;4.20;;;2.33;;
7057;SDS011;3570;43.080;25.628;2022-10-30T15:35:41;6.80;;;2.70;;
7057;SDS011;3570;43.080;25.628;2022-10-30T15:38:30;2.97;;;2.57;;
7057;SDS011;3570;43.080;25.628;2022-10-30T15:41:14;4.50;;;2.97;;
7057;SDS011;3570;43.080;25.628;2022-10-30T15:43:59;4.47;;;3.00;;
7057;SDS011;3570;43.080;25.628;2022-10-30T15:46:44;13.53;;;5.03;;
7057;SDS011;3570;43.080;25.628;2022-10-30T15:49:37;15.87;;;7.63;;
7057;SDS011;3570;43.080;25.628;2022-10-30T15:52:25;8.23;;;3.70;;
7057;SDS011;3570;43.080;25.628;2022-10-30T15:55:16;9.17;;;4.50;;
7057;SDS011;3570;43.080;25.628;2022-10-30T15:58:03;9.93;;;4.60;;
7057;SDS011;3570;43.080;25.628;2022-10-30T16:00:55;8.73;;;5.00;;
7057;SDS011;3570;43.080;25.628;2022-10-30T16:03:40;13.70;;;4.73;;
7057;SDS011;3570;43.080;25.628;2022-10-30T16:06:35;6.40;;;4.23;;
7057;SDS011;3570;43.080;25.628;2022-10-30T16:09:20;9.13;;;4.33;;
7057;SDS011;3570;43.080;25.628;2022-10-30T16:12:08;8.33;;;4.90;;
7057;SDS011;3570;43.080;25.628;2022-10-30T16:14:53;8.03;;;3.87;;
7057;SDS011;3570;43.080;25.628;2022-10-30T16:17:39;6.67;;;4.00;;
7057;SDS011;3570;43.080;25.628;2022-10-30T16:20:24;7.00;;;4.63;;
7057;SDS011;3570;43.080;25.628;2022-10-30T16:23:10;10.73;;;3.90;;
7057;SDS011;3570;43.080;25.628;2022-10-30T16:25:57;14.00;;;4.77;;
7057;SDS011;3570;43.080;25.628;2022-10-30T16:28:45;8.63;;;4.37;;
7057;SDS011;3570;43.080;25.628;2022-10-30T16:31:32;10.53;;;4.40;;
7057;SDS011;3570;43.080;25.628;2022-10-30T16:34:20;8.47;;;4.20;;
7057;SDS011;3570;43.080;25.628;2022-10-30T16:37:40;7.67;;;3.53;;
7057;SDS011;3570;43.080;25.628;2022-10-30T16:40:24;5.03;;;3.27;;
7057;SDS011;3570;43.080;25.628;2022-10-30T16:49:21;5.40;;;3.43;;
7057;SDS011;3570;43.080;25.628;2022-10-30T16:52:09;9.47;;;3.87;;
7057;SDS011;3570;43.080;25.628;2022-10-30T16:55:03;11.83;;;5.93;;
7057;SDS011;3570;43.080;25.628;2022-10-30T16:57:52;8.57;;;5.03;;
7057;SDS011;3570;43.080;25.628;2022-10-30T17:00:39;15.23;;;6.90;;
7057;SDS011;3570;43.080;25.628;2022-10-30T17:03:24;11.37;;;5.97;;
7057;SDS011;3570;43.080;25.628;2022-10-30T17:09:27;12.97;;;5.93;;
7057;SDS011;3570;43.080;25.628;2022-10-30T17:12:13;8.70;;;5.37;;
7057;SDS011;3570;43.080;25.628;2022-10-30T17:18:07;12.50;;;6.23;;
7057;SDS011;3570;43.080;25.628;2022-10-30T17:21:16;10.83;;;6.47;;
7057;SDS011;3570;43.080;25.628;2022-10-30T17:24:03;15.77;;;7.73;;
7057;SDS011;3570;43.080;25.628;2022-10-30T17:26:55;24.47;;;6.83;;
7057;SDS011;3570;43.080;25.628;2022-10-30T17:29:43;19.53;;;8.40;;
7057;SDS011;3570;43.080;25.628;2022-10-30T17:32:41;18.57;;;6.40;;
7057;SDS011;3570;43.080;25.628;2022-10-30T17:35:27;16.37;;;7.03;;
7057;SDS011;3570;43.080;25.628;2022-10-30T17:38:11;14.27;;;6.23;;
7057;SDS011;3570;43.080;25.628;2022-10-30T17:41:00;14.90;;;7.33;;
7057;SDS011;3570;43.080;25.628;2022-10-30T17:43:51;11.87;;;6.10;;
7057;SDS011;3570;43.080;25.628;2022-10-30T17:46:39;12.80;;;6.20;;
7057;SDS011;3570;43.080;25.628;2022-10-30T17:49:24;11.60;;;6.17;;
7057;SDS011;3570;43.080;25.628;2022-10-30T17:52:13;12.67;;;5.93;;
7057;SDS011;3570;43.080;25.628;2022-10-30T17:55:00;12.20;;;5.50;;
7057;SDS011;3570;43.080;25.628;2022-10-30T17:57:45;17.90;;;5.87;;
7057;SDS011;3570;43.080;25.628;2022-10-30T18:00:29;13.33;;;6.53;;
7057;SDS011;3570;43.080;25.628;2022-10-30T18:03:15;11.93;;;5.13;;
7057;SDS011;3570;43.080;25.628;2022-10-30T18:06:00;17.47;;;7.03;;
7057;SDS011;3570;43.080;25.628;2022-10-30T18:08:45;16.40;;;6.33;;
7057;SDS011;3570;43.080;25.628;2022-10-30T18:11:29;12.97;;;5.60;;
7057;SDS011;3570;43.080;25.628;2022-10-30T18:14:13;11.50;;;5.80;;
7057;SDS011;3570;43.080;25.628;2022-10-30T18:17:01;13.67;;;6.10;;
7057;SDS011;3570;43.080;25.628;2022-10-30T18:19:50;15.33;;;6.90;;
7057;SDS011;3570;43.080;25.628;2022-10-30T18:22:34;14.30;;;6.13;;
7057;SDS011;3570;43.080;25.628;2022-10-30T18:25:23;12.00;;;7.13;;
7057;SDS011;3570;43.080;25.628;2022-10-30T18:28:14;14.70;;;7.33;;
7057;SDS011;3570;43.080;25.628;2022-10-30T18:30:59;13.60;;;6.57;;
7057;SDS011;3570;43.080;25.628;2022-10-30T18:33:46;8.83;;;6.20;;
7057;SDS011;3570;43.080;25.628;2022-10-30T18:36:31;14.30;;;6.03;;
7057;SDS011;3570;43.080;25.628;2022-10-30T18:39:16;12.90;;;6.37;;
7057;SDS011;3570;43.080;25.628;2022-10-30T18:42:00;13.60;;;7.63;;
7057;SDS011;3570;43.080;25.628;2022-10-30T18:44:34;14.73;;;8.33;;
7057;SDS011;3570;43.080;25.628;2022-10-30T18:47:00;14.23;;;6.80;;
7057;SDS011;3570;43.080;25.628;2022-10-30T18:49:29;7.67;;;4.60;;
7057;SDS011;3570;43.080;25.628;2022-10-30T18:51:57;11.67;;;6.23;;
7057;SDS011;3570;43.080;25.628;2022-10-30T18:54:22;16.10;;;8.30;;
7057;SDS011;3570;43.080;25.628;2022-10-30T18:56:48;20.87;;;9.40;;
7057;SDS011;3570;43.080;25.628;2022-10-30T18:59:16;20.23;;;9.27;;
7057;SDS011;3570;43.080;25.628;2022-10-30T19:01:42;16.90;;;7.97;;
7057;SDS011;3570;43.080;25.628;2022-10-30T19:04:08;14.17;;;7.67;;
7057;SDS011;3570;43.080;25.628;2022-10-30T19:09:39;14.70;;;7.97;;
7057;SDS011;3570;43.080;25.628;2022-10-30T19:12:07;15.07;;;7.60;;
7057;SDS011;3570;43.080;25.628;2022-10-30T19:14:44;13.83;;;6.63;;
7057;SDS011;3570;43.080;25.628;2022-10-30T19:17:10;10.20;;;6.20;;
7057;SDS011;3570;43.080;25.628;2022-10-30T19:19:35;20.63;;;8.03;;
7057;SDS011;3570;43.080;25.628;2022-10-30T19:22:00;12.07;;;7.63;;
7057;SDS011;3570;43.080;25.628;2022-10-30T19:24:26;18.93;;;9.90;;
7057;SDS011;3570;43.080;25.628;2022-10-30T19:26:51;20.07;;;8.50;;
7057;SDS011;3570;43.080;25.628;2022-10-30T19:29:17;14.83;;;8.53;;
7057;SDS011;3570;43.080;25.628;2022-10-30T19:31:42;16.43;;;8.00;;
7057;SDS011;3570;43.080;25.628;2022-10-30T19:34:08;12.87;;;6.87;;
7057;SDS011;3570;43.080;25.628;2022-10-30T19:36:52;12.90;;;7.13;;
7057;SDS011;3570;43.080;25.628;2022-10-30T19:39:40;13.23;;;7.43;;
7057;SDS011;3570;43.080;25.628;2022-10-30T19:42:25;13.33;;;6.77;;